Terminal Aerodrome Forecast
Issued by NWS

Home | Current Version | Previous Version | Text Only | Print | Product List | Glossary On
Versions: 1 2 3 4 5 6 7 8 9 10 11 12 13 14 15 16 17 18 19 20 21 22 23 24 25
000
FTUS41 KBUF 180910 AAA
TAFIAG
TAF AMD
KIAG 180910Z 1809/1906 23009KT P6SM FEW250
     FM181600 22013G19KT P6SM SKC
     FM182300 21008KT P6SM SKC=

USA.gov is the U.S. government's official web portal to all federal, state and local government web resources and services.